Time;durP1;ratioP1;P1;durP2;ratioP2;P2;SDS_P1;SDS_P2;PMS_P1;PMS_P2;Temp;Humidity;BMP_temperature;BMP_pressure;BME280_temperature;BME280_humidity;BME280_pressure;Samples;Min_cycle;Max_cycle;Signal;HPM_P1;HPM_P2
2023/04/30 00:00:08;;;;;;;0.20;0.20;;;;;;;18.95;45.20;101862.25;5114256;28;20043;-46
2023/04/30 00:02:34;;;;;;;0.20;0.20;;;;;;;18.95;45.13;101865.81;5114382;28;20128;-44
2023/04/30 00:05:00;;;;;;;0.30;0.30;;;;;;;18.95;45.34;101856.72;5114293;28;20475;-44
2023/04/30 00:07:25;;;;;;;0.20;0.20;;;;;;;18.95;45.47;101865.00;5114560;28;20054;-45
2023/04/30 00:09:51;;;;;;;0.30;0.30;;;;;;;18.94;45.53;101858.66;5114131;28;20589;-49
2023/04/30 00:12:17;;;;;;;0.30;0.30;;;;;;;18.95;44.97;101857.53;5114063;28;20370;-45
2023/04/30 00:14:42;;;;;;;0.20;0.20;;;;;;;18.96;45.40;101863.94;5113669;27;20039;-45
2023/04/30 00:17:08;;;;;;;0.22;0.22;;;;;;;18.94;45.15;101864.16;5117452;28;20499;-44
2023/04/30 00:19:34;;;;;;;0.25;0.25;;;;;;;18.94;45.19;101860.56;5117515;28;20059;-45
2023/04/30 00:22:01;;;;;;;0.22;0.22;;;;;;;18.96;45.24;101861.16;5117549;28;20040;-44
2023/04/30 00:24:27;;;;;;;0.20;0.20;;;;;;;18.95;45.36;101865.00;5117600;28;20499;-46
2023/04/30 00:26:52;;;;;;;0.22;0.22;;;;;;;18.97;45.29;101868.34;5099143;28;20042;-48
2023/04/30 00:29:18;;;;;;;0.30;0.30;;;;;;;18.96;45.43;101875.81;5116974;28;20051;-44
2023/04/30 00:31:44;;;;;;;0.30;0.30;;;;;;;18.95;45.06;101871.34;5117506;27;20124;-45
2023/04/30 00:34:09;;;;;;;0.30;0.30;;;;;;;18.96;45.10;101873.03;5117383;28;20046;-46
2023/04/30 00:36:35;;;;;;;0.30;0.30;;;;;;;18.96;45.27;101873.03;5117275;28;20466;-43
2023/04/30 00:39:01;;;;;;;0.30;0.30;;;;;;;18.97;45.21;101876.63;5117486;28;20055;-45
2023/04/30 00:41:27;;;;;;;0.30;0.30;;;;;;;18.97;45.34;101873.88;5116818;28;20048;-46
2023/04/30 00:43:53;;;;;;;0.30;0.30;;;;;;;18.95;45.33;101876.88;5115663;28;20082;-45
2023/04/30 00:46:18;;;;;;;0.30;0.30;;;;;;;18.98;45.22;101878.28;5117093;28;20043;-44
2023/04/30 00:48:44;;;;;;;0.30;0.30;;;;;;;18.97;45.33;101874.72;5116593;28;20422;-45
2023/04/30 00:51:10;;;;;;;0.30;0.30;;;;;;;18.96;45.06;101875.81;5117637;27;20066;-44
2023/04/30 00:53:37;;;;;;;0.30;0.30;;;;;;;18.96;45.00;101873.03;5117313;28;20313;-46
2023/04/30 00:56:04;;;;;;;0.40;0.40;;;;;;;18.97;45.21;101885.75;5116923;28;20456;-44
2023/04/30 00:58:30;;;;;;;0.30;0.30;;;;;;;18.97;45.06;101882.16;5098615;28;20062;-44
2023/04/30 01:00:56;;;;;;;0.35;0.35;;;;;;;18.96;45.05;101872.22;5117080;28;20045;-44
2023/04/30 01:03:22;;;;;;;0.30;0.30;;;;;;;18.96;44.94;101878.56;5117056;28;20047;-46
2023/04/30 01:05:49;;;;;;;0.30;0.30;;;;;;;18.97;45.08;101879.41;5116968;28;20047;-45
2023/04/30 01:08:14;;;;;;;0.30;0.30;;;;;;;18.96;45.23;101875.81;5116828;28;20047;-44
2023/04/30 01:10:45;;;;;;;0.30;0.30;;;;;;;18.96;45.19;101878.56;5116630;28;20495;-48
2023/04/30 01:13:17;;;;;;;0.30;0.30;;;;;;;18.97;45.26;101876.63;5116211;28;20078;-45
2023/04/30 01:15:58;;;;;;;0.30;0.30;;;;;;;18.96;45.34;101873.03;5097734;28;20597;-45
2023/04/30 01:18:27;;;;;;;0.30;0.30;;;;;;;18.96;44.94;101873.03;5115707;28;20051;-45
2023/04/30 01:20:57;;;;;;;0.20;0.20;;;;;;;18.97;45.16;101882.16;5116152;28;20047;-46
2023/04/30 01:26:12;;;;;;;0.20;0.20;;;;;;;18.97;45.13;101873.88;5173626;27;20120;-45
2023/04/30 01:28:39;;;;;;;0.28;0.28;;;;;;;18.96;45.14;101870.28;5133588;27;20073;-47
2023/04/30 01:31:18;;;;;;;0.30;0.30;;;;;;;18.97;45.01;101871.94;5116761;27;20409;-45
2023/04/30 01:33:44;;;;;;;0.28;0.28;;;;;;;18.96;45.31;101863.94;5113932;27;20497;-44
2023/04/30 01:36:44;;;;;;;0.30;0.30;;;;;;;18.97;44.99;101869.19;5113037;27;20051;-46
2023/04/30 01:39:49;;;;;;;0.30;0.30;;;;;;;18.97;45.14;101877.47;5131871;27;20101;-44
2023/04/30 01:42:21;;;;;;;0.20;0.20;;;;;;;18.96;45.18;101870.28;5119014;27;20050;-44
2023/04/30 01:45:26;;;;;;;0.43;0.43;;;;;;;18.97;45.29;101874.72;5131277;27;20078;-44
2023/04/30 01:48:16;;;;;;;0.30;0.30;;;;;;;18.97;45.19;101876.63;5104677;27;20050;-46
2023/04/30 01:51:02;;;;;;;0.30;0.30;;;;;;;18.95;45.29;101868.59;5110342;27;20719;-47
2023/04/30 01:53:37;;;;;;;0.30;0.30;;;;;;;18.95;44.92;101868.59;5111257;28;20055;-43
2023/04/30 01:56:05;;;;;;;0.30;0.30;;;;;;;18.96;45.16;101859.25;5111457;28;20043;-44
2023/04/30 01:58:31;;;;;;;0.20;0.20;;;;;;;18.96;45.15;101867.53;5111244;28;20039;-45
2023/04/30 02:00:56;;;;;;;0.20;0.20;;;;;;;18.96;45.03;101872.22;5110822;27;20057;-46
2023/04/30 02:03:22;;;;;;;0.30;0.30;;;;;;;18.98;45.07;101872.78;5111744;28;20055;-42
2023/04/30 02:05:49;;;;;;;0.30;0.30;;;;;;;18.96;45.25;101870.28;5111303;28;20054;-47
2023/04/30 02:08:15;;;;;;;0.30;0.30;;;;;;;18.96;45.15;101872.22;5111237;28;20510;-45
2023/04/30 02:10:40;;;;;;;0.20;0.20;;;;;;;18.96;44.94;101874.97;5111094;27;20039;-44
2023/04/30 02:13:06;;;;;;;0.20;0.20;;;;;;;18.96;45.09;101866.69;5111080;28;20309;-46
2023/04/30 02:15:32;;;;;;;0.20;0.20;;;;;;;18.97;45.42;101874.72;5112961;27;20055;-47
2023/04/30 02:17:57;;;;;;;0.40;0.40;;;;;;;18.97;45.25;101871.13;5130930;27;20042;-47
2023/04/30 02:20:23;;;;;;;0.20;0.20;;;;;;;18.95;45.21;101876.88;5120791;27;20095;-44
2023/04/30 02:22:49;;;;;;;0.20;0.20;;;;;;;18.95;45.28;101871.34;5111114;28;20096;-47
2023/04/30 02:25:15;;;;;;;0.30;0.30;;;;;;;18.97;45.02;101871.94;5111206;28;20411;-45
2023/04/30 02:27:41;;;;;;;0.30;0.30;;;;;;;18.96;45.28;101870.28;5111093;28;20044;-46
2023/04/30 02:30:07;;;;;;;0.28;0.28;;;;;;;18.96;44.99;101864.75;5117877;27;20061;-44
2023/04/30 02:32:32;;;;;;;0.20;0.20;;;;;;;18.96;44.99;101872.22;5112887;27;20588;-46
2023/04/30 02:34:58;;;;;;;0.20;0.20;;;;;;;18.96;45.05;101873.03;5131876;27;20651;-44
2023/04/30 02:37:24;;;;;;;0.20;0.20;;;;;;;18.98;44.97;101875.53;5118303;27;20445;-47
2023/04/30 02:39:50;;;;;;;0.20;0.20;;;;;;;18.98;45.09;101878.28;5117084;28;20433;-43
2023/04/30 02:42:16;;;;;;;0.20;0.20;;;;;;;18.97;45.26;101880.22;5099120;28;20047;-45
2023/04/30 02:44:42;;;;;;;0.28;0.28;;;;;;;18.97;45.24;101873.88;5116941;28;20415;-47
2023/04/30 02:47:08;;;;;;;0.28;0.28;;;;;;;18.96;45.34;101873.03;5118177;27;20099;-44
2023/04/30 02:49:33;;;;;;;0.20;0.20;;;;;;;18.97;45.14;101873.88;5113467;27;20074;-48
2023/04/30 02:51:59;;;;;;;0.20;0.20;;;;;;;18.96;44.96;101875.81;5116291;28;20316;-49
2023/04/30 02:54:25;;;;;;;0.20;0.20;;;;;;;18.95;45.15;101863.06;5117278;28;20090;-43
2023/04/30 02:56:51;;;;;;;0.20;0.20;;;;;;;18.96;45.09;101863.94;5117603;28;20039;-44
2023/04/30 02:59:16;;;;;;;0.20;0.20;;;;;;;18.96;45.10;101873.03;5117317;28;20050;-46
2023/04/30 03:01:42;;;;;;;0.25;0.25;;;;;;;18.96;45.00;101866.69;5117130;28;20043;-46
2023/04/30 03:04:08;;;;;;;0.20;0.20;;;;;;;18.96;45.13;101863.94;5117506;28;20069;-47
2023/04/30 03:06:34;;;;;;;0.30;0.30;;;;;;;18.97;45.11;101871.94;5117536;28;20043;-45
2023/04/30 03:09:00;;;;;;;0.30;0.30;;;;;;;18.96;45.28;101864.75;5117314;28;20518;-46
2023/04/30 03:11:25;;;;;;;0.20;0.20;;;;;;;18.96;45.29;101864.75;5116708;28;20472;-45
2023/04/30 03:13:52;;;;;;;0.20;0.20;;;;;;;18.96;45.11;101866.69;5116430;28;20047;-44
2023/04/30 03:16:18;;;;;;;0.20;0.20;;;;;;;18.97;45.26;101862.84;5116932;28;20047;-45
2023/04/30 03:18:45;;;;;;;0.20;0.20;;;;;;;18.96;45.24;101862.00;5086845;28;20044;-44
2023/04/30 03:21:11;;;;;;;0.22;0.22;;;;;;;18.97;45.25;101862.84;5077352;28;20047;-44
2023/04/30 03:23:37;;;;;;;0.20;0.20;;;;;;;18.97;45.09;101869.19;5096184;28;20047;-45
2023/04/30 03:26:02;;;;;;;0.20;0.20;;;;;;;18.95;44.97;101863.06;5096067;28;20047;-45
2023/04/30 03:28:28;;;;;;;0.20;0.20;;;;;;;18.95;45.36;101865.81;5101852;27;20048;-46
2023/04/30 03:30:54;;;;;;;0.20;0.20;;;;;;;18.96;44.99;101867.53;5107944;27;20052;-45
2023/04/30 03:33:20;;;;;;;0.20;0.20;;;;;;;18.96;45.23;101870.28;5077758;28;20383;-44
2023/04/30 03:35:45;;;;;;;0.20;0.20;;;;;;;18.97;45.43;101876.63;5095099;28;20082;-45
2023/04/30 03:38:11;;;;;;;0.20;0.20;;;;;;;18.96;45.25;101870.28;5098491;28;20039;-45
2023/04/30 03:40:37;;;;;;;0.20;0.20;;;;;;;18.97;44.92;101877.47;5116371;28;20039;-47
2023/04/30 03:43:02;;;;;;;0.25;0.25;;;;;;;18.98;45.18;101873.59;5116416;28;20051;-45
2023/04/30 03:45:28;;;;;;;0.20;0.20;;;;;;;18.96;45.27;101875.81;5097854;28;20043;-47
2023/04/30 03:47:54;;;;;;;0.20;0.20;;;;;;;18.98;45.17;101870.00;5115071;27;20130;-46
2023/04/30 03:50:19;;;;;;;0.28;0.28;;;;;;;18.96;45.13;101873.03;5106418;28;20051;-45
2023/04/30 03:52:45;;;;;;;0.20;0.20;;;;;;;18.96;45.31;101869.44;5106174;28;20039;-44
2023/04/30 03:55:11;;;;;;;0.20;0.20;;;;;;;18.95;45.02;101882.41;5116531;28;20080;-44
2023/04/30 03:57:38;;;;;;;0.20;0.20;;;;;;;18.96;45.24;101874.97;5097769;28;20039;-43
2023/04/30 04:00:06;;;;;;;0.30;0.30;;;;;;;18.96;45.23;101880.50;5097630;28;20073;-44
2023/04/30 04:02:32;;;;;;;0.20;0.20;;;;;;;18.95;45.25;101874.13;5116081;28;20487;-48
2023/04/30 04:04:58;;;;;;;0.20;0.20;;;;;;;18.95;44.91;101871.34;5097378;28;20491;-43
2023/04/30 04:07:24;;;;;;;0.20;0.20;;;;;;;18.95;45.01;101876.88;5115808;28;20108;-45
2023/04/30 04:09:50;;;;;;;0.20;0.20;;;;;;;18.95;45.03;101874.13;5115961;28;20219;-44
2023/04/30 04:12:15;;;;;;;0.40;0.40;;;;;;;18.96;44.98;101872.22;5115858;28;20054;-47
2023/04/30 04:14:41;;;;;;;0.20;0.20;;;;;;;18.96;45.28;101872.22;5097078;28;20100;-46
2023/04/30 04:17:07;;;;;;;0.30;0.30;;;;;;;18.96;44.97;101875.81;5115967;28;20043;-46
2023/04/30 04:19:32;;;;;;;0.25;0.25;;;;;;;18.96;45.22;101873.03;5113420;28;20047;-43
2023/04/30 04:21:58;;;;;;;0.20;0.20;;;;;;;18.96;45.10;101875.81;5115664;28;20187;-43
2023/04/30 04:24:24;;;;;;;0.20;0.20;;;;;;;18.95;45.11;101868.59;5115736;28;20098;-46
2023/04/30 04:26:50;;;;;;;0.30;0.30;;;;;;;18.96;45.21;101873.03;5080095;28;20910;-44
2023/04/30 04:29:16;;;;;;;0.30;0.30;;;;;;;18.95;44.93;101865.81;5096604;28;20047;-43
2023/04/30 04:31:42;;;;;;;0.30;0.30;;;;;;;18.96;45.10;101874.97;5115571;27;20046;-47
2023/04/30 04:34:08;;;;;;;0.20;0.20;;;;;;;18.96;44.92;101873.03;5115594;28;20050;-47
2023/04/30 04:36:34;;;;;;;0.20;0.20;;;;;;;18.97;45.06;101874.72;5115285;28;20039;-45
2023/04/30 04:39:01;;;;;;;0.30;0.30;;;;;;;18.96;45.28;101872.22;5115187;28;20054;-45
2023/04/30 04:41:27;;;;;;;0.30;0.30;;;;;;;18.94;44.99;101875.22;5115221;28;20047;-46
2023/04/30 04:43:53;;;;;;;0.20;0.20;;;;;;;18.95;45.17;101876.88;5115104;28;20039;-43
2023/04/30 04:46:19;;;;;;;0.20;0.20;;;;;;;18.96;45.01;101884.09;5115459;28;20054;-44
2023/04/30 04:48:45;;;;;;;1.90;0.38;;;;;;;18.96;44.91;101883.25;5114081;28;20074;-44
2023/04/30 04:51:11;;;;;;;0.20;0.20;;;;;;;18.95;45.23;101890.69;5115390;28;20564;-45
2023/04/30 04:53:37;;;;;;;0.28;0.28;;;;;;;18.96;45.27;101895.13;5096620;28;20501;-44
2023/04/30 04:56:04;;;;;;;0.20;0.20;;;;;;;18.96;45.07;101895.13;5114734;28;20292;-44
2023/04/30 04:58:29;;;;;;;0.20;0.20;;;;;;;18.96;44.94;101892.38;5114465;27;20293;-46
2023/04/30 05:00:56;;;;;;;0.20;0.20;;;;;;;18.95;44.97;101895.38;5114724;28;20047;-47
2023/04/30 05:03:21;;;;;;;0.20;0.20;;;;;;;18.96;45.10;101897.88;5115108;28;20043;-46
2023/04/30 05:05:47;;;;;;;0.20;0.20;;;;;;;18.96;45.15;101895.13;5114793;28;20100;-45
2023/04/30 05:08:13;;;;;;;0.20;0.20;;;;;;;18.95;45.27;101904.47;5096233;28;20043;-44
2023/04/30 05:10:39;;;;;;;0.20;0.20;;;;;;;18.96;45.09;101903.41;5114691;28;20047;-46
2023/04/30 05:13:05;;;;;;;0.20;0.20;;;;;;;18.95;45.23;101909.16;5114846;28;20047;-45
2023/04/30 05:15:30;;;;;;;0.30;0.30;;;;;;;18.97;45.07;101910.59;5114762;28;20078;-47
2023/04/30 05:17:56;;;;;;;0.20;0.20;;;;;;;18.97;45.06;101918.03;5114305;28;20039;-46
2023/04/30 05:20:22;;;;;;;0.30;0.30;;;;;;;18.96;44.98;101908.09;5114115;28;20552;-46
2023/04/30 05:22:47;;;;;;;0.20;0.20;;;;;;;18.95;45.09;101914.69;5114706;28;20051;-45
2023/04/30 05:25:13;;;;;;;0.20;0.20;;;;;;;18.96;45.23;101917.22;5113044;28;20039;-45
2023/04/30 05:27:39;;;;;;;0.20;0.20;;;;;;;18.96;44.94;101925.50;5102459;28;20065;-43
2023/04/30 05:30:06;;;;;;;0.20;0.20;;;;;;;18.95;44.95;101923.78;5114084;27;20062;-49
2023/04/30 05:32:31;;;;;;;0.30;0.30;;;;;;;18.96;45.28;101930.19;5114813;27;20050;-43
2023/04/30 05:34:57;;;;;;;0.25;0.25;;;;;;;18.95;44.93;101932.06;5114732;28;20055;-46
2023/04/30 05:37:23;;;;;;;0.30;0.30;;;;;;;18.94;44.92;101922.13;5114378;28;20047;-44
2023/04/30 05:39:48;;;;;;;0.30;0.30;;;;;;;18.95;44.86;101932.06;5113899;28;20053;-44
2023/04/30 05:42:14;;;;;;;0.30;0.30;;;;;;;18.95;45.09;101929.31;5114643;28;20040;-46
2023/04/30 05:44:40;;;;;;;0.20;0.20;;;;;;;18.95;45.07;101932.06;5114541;28;20262;-43
2023/04/30 05:47:06;;;;;;;0.30;0.30;;;;;;;18.96;45.19;101932.94;5079264;28;20419;-48
2023/04/30 05:49:31;;;;;;;0.22;0.22;;;;;;;18.96;44.90;101927.41;5113199;28;20081;-46
2023/04/30 05:52:02;;;;;;;0.20;0.20;;;;;;;18.96;45.31;101927.41;5113860;28;20051;-44
2023/04/30 05:54:28;;;;;;;0.30;0.30;;;;;;;18.95;44.97;101929.31;5114769;28;20075;-45
2023/04/30 05:56:54;;;;;;;0.25;0.25;;;;;;;18.96;45.16;101932.94;5099006;28;20258;-43
2023/04/30 05:59:20;;;;;;;0.20;0.20;;;;;;;18.96;45.16;101946.75;5113778;28;20715;-46
2023/04/30 06:01:46;;;;;;;0.30;0.30;;;;;;;18.95;44.97;101940.38;5114251;28;20095;-44
2023/04/30 06:04:12;;;;;;;0.20;0.20;;;;;;;18.96;45.28;101943.97;5114527;28;20100;-46
2023/04/30 06:06:37;;;;;;;0.20;0.20;;;;;;;18.95;45.06;101936.78;5114407;28;20111;-46
2023/04/30 06:09:03;;;;;;;0.20;0.20;;;;;;;18.96;44.92;101938.47;5114414;28;20491;-43
2023/04/30 06:11:29;;;;;;;0.20;0.20;;;;;;;18.95;45.02;101926.56;5115420;27;20047;-46
2023/04/30 06:13:55;;;;;;;0.20;0.20;;;;;;;18.95;45.23;101929.31;5082041;28;20047;-44
2023/04/30 06:16:22;;;;;;;0.20;0.20;;;;;;;18.95;44.97;101926.56;5118251;28;20689;-44
2023/04/30 06:18:47;;;;;;;0.20;0.20;;;;;;;18.95;45.25;101931.25;5117051;28;20055;-45
2023/04/30 06:21:13;;;;;;;0.20;0.20;;;;;;;18.95;45.02;101936.78;5117557;28;20509;-46
2023/04/30 06:23:39;;;;;;;0.20;0.20;;;;;;;18.95;44.93;101934.84;5117447;28;20047;-45
2023/04/30 06:26:04;;;;;;;0.30;0.30;;;;;;;18.95;45.17;101931.25;5117276;27;20077;-45
2023/04/30 06:28:30;;;;;;;0.30;0.30;;;;;;;18.95;45.04;101937.59;5097064;28;20077;-49
2023/04/30 06:30:56;;;;;;;0.20;0.20;;;;;;;18.95;45.16;101929.31;5096754;28;20043;-44
2023/04/30 06:33:22;;;;;;;0.20;0.20;;;;;;;18.94;45.02;101930.41;5097200;28;20536;-45
2023/04/30 06:35:49;;;;;;;0.20;0.20;;;;;;;18.96;45.10;101921.91;5079186;28;20090;-45
2023/04/30 06:38:16;;;;;;;0.20;0.20;;;;;;;18.95;45.13;101931.25;5078830;28;20301;-48
2023/04/30 06:40:43;;;;;;;0.20;0.20;;;;;;;18.94;45.01;101927.66;5096940;28;20059;-43
2023/04/30 06:43:08;;;;;;;0.20;0.20;;;;;;;18.95;45.01;101920.22;5096719;28;20065;-44
2023/04/30 06:45:34;;;;;;;0.20;0.20;;;;;;;18.95;45.21;101923.78;5096823;28;20051;-45
2023/04/30 06:48:00;;;;;;;0.20;0.20;;;;;;;18.95;45.19;101929.31;5096710;28;20497;-45
2023/04/30 06:50:26;;;;;;;0.30;0.30;;;;;;;18.95;45.17;101923.78;5077680;28;20292;-44
2023/04/30 06:52:51;;;;;;;0.30;0.30;;;;;;;18.95;45.23;101928.50;5114783;28;20063;-44
2023/04/30 06:55:17;;;;;;;0.22;0.22;;;;;;;18.94;44.96;101922.13;5116936;28;20184;-45
2023/04/30 06:57:43;;;;;;;0.30;0.30;;;;;;;18.95;44.99;101934.00;5116628;28;20058;-45
2023/04/30 07:00:09;;;;;;;0.20;0.20;;;;;;;18.94;44.87;101924.91;5108025;27;20050;-45
2023/04/30 07:02:35;;;;;;;0.20;0.20;;;;;;;18.94;45.19;101933.19;5096248;28;20048;-43
2023/04/30 07:05:01;;;;;;;0.30;0.30;;;;;;;18.94;44.91;101930.41;5096128;28;20044;-45
2023/04/30 07:07:27;;;;;;;0.20;0.20;;;;;;;18.94;45.32;101919.38;5061518;28;20047;-44
2023/04/30 07:09:53;;;;;;;0.30;0.30;;;;;;;18.94;44.95;101930.41;5095993;28;20044;-46
2023/04/30 07:12:20;;;;;;;0.30;0.30;;;;;;;18.94;45.07;101922.13;5096311;28;20500;-46
2023/04/30 07:14:45;;;;;;;0.20;0.20;;;;;;;18.95;44.94;101925.72;5060991;28;20090;-47
2023/04/30 07:17:11;;;;;;;0.20;0.20;;;;;;;18.95;44.97;101925.72;5096731;28;20044;-46
2023/04/30 07:19:37;;;;;;;0.30;0.30;;;;;;;18.95;45.10;101929.31;5095291;28;20056;-46
2023/04/30 07:22:03;;;;;;;0.30;0.30;;;;;;;18.94;44.89;101927.66;5096031;28;20419;-43
2023/04/30 07:24:28;;;;;;;0.30;0.30;;;;;;;18.94;45.15;101911.09;5097267;28;20089;-47
2023/04/30 07:26:54;;;;;;;0.30;0.30;;;;;;;18.94;44.93;101908.34;5108664;27;20403;-43
2023/04/30 07:29:20;;;;;;;0.30;0.30;;;;;;;18.96;44.97;101911.69;5096958;28;20052;-44
2023/04/30 07:31:46;;;;;;;0.28;0.28;;;;;;;18.95;44.94;101906.41;5116360;27;20212;-44
2023/04/30 07:34:12;;;;;;;0.30;0.30;;;;;;;18.94;45.08;101905.56;5116371;28;20043;-45
2023/04/30 07:36:38;;;;;;;0.20;0.20;;;;;;;18.94;45.24;101910.25;5116645;28;20441;-47
2023/04/30 07:39:04;;;;;;;0.30;0.30;;;;;;;18.94;44.93;101908.34;5116318;28;20096;-45
2023/04/30 07:41:30;;;;;;;0.20;0.20;;;;;;;18.93;44.92;101912.19;5076761;28;20043;-44
2023/04/30 07:43:56;;;;;;;0.20;0.20;;;;;;;18.94;44.98;101910.25;5095587;28;20072;-45
2023/04/30 07:46:24;;;;;;;0.20;0.20;;;;;;;18.94;45.03;101913.84;5095894;28;20399;-44
2023/04/30 07:48:49;;;;;;;0.20;0.20;;;;;;;18.95;45.16;101917.44;5096119;28;20066;-46
2023/04/30 07:51:15;;;;;;;0.30;0.30;;;;;;;18.95;44.94;101911.94;5094275;28;20517;-43
2023/04/30 07:53:41;;;;;;;0.20;0.20;;;;;;;18.94;45.12;101913.84;5099631;28;20502;-46
2023/04/30 07:56:07;;;;;;;0.30;0.30;;;;;;;18.94;45.19;101915.78;5114915;28;20051;-43
2023/04/30 07:58:33;;;;;;;0.30;0.30;;;;;;;18.93;44.88;101906.66;5116112;27;20043;-46
2023/04/30 08:00:58;;;;;;;0.30;0.30;;;;;;;18.94;45.17;101913.03;5114085;27;20358;-48
2023/04/30 08:03:24;;;;;;;0.30;0.30;;;;;;;18.94;44.91;101916.63;5116073;28;20468;-44
2023/04/30 08:05:51;;;;;;;0.30;0.30;;;;;;;18.93;44.95;101909.44;5115912;28;20457;-44
2023/04/30 08:08:16;;;;;;;0.30;0.30;;;;;;;18.94;45.01;101916.63;5097645;28;20043;-47
2023/04/30 08:10:42;;;;;;;0.20;0.20;;;;;;;18.94;45.02;101910.25;5116071;28;20058;-44
2023/04/30 08:13:08;;;;;;;0.30;0.30;;;;;;;18.94;45.20;101913.03;5115611;28;20043;-45
2023/04/30 08:15:34;;;;;;;0.30;0.30;;;;;;;18.93;45.17;101920.47;5115768;28;20392;-45
2023/04/30 08:18:01;;;;;;;0.30;0.30;;;;;;;18.94;44.89;101919.38;5097468;28;20039;-45
2023/04/30 08:20:27;;;;;;;0.30;0.30;;;;;;;18.94;44.89;101919.38;5096849;28;20565;-44
2023/04/30 08:22:52;;;;;;;0.30;0.30;;;;;;;18.94;45.00;101918.53;5115846;28;20051;-44
2023/04/30 08:25:19;;;;;;;0.30;0.30;;;;;;;18.94;44.85;101910.25;5115336;27;20489;-44
2023/04/30 08:27:45;;;;;;;0.30;0.30;;;;;;;18.93;44.86;101908.59;5115759;27;20051;-46
2023/04/30 08:30:11;;;;;;;0.30;0.30;;;;;;;18.94;45.02;101916.63;5107934;27;20051;-47
2023/04/30 08:32:36;;;;;;;0.30;0.30;;;;;;;18.95;44.84;101920.22;5077221;28;20098;-44
2023/04/30 08:35:04;;;;;;;0.20;0.20;;;;;;;18.95;45.15;101920.22;5094624;28;20051;-46
2023/04/30 08:37:30;;;;;;;0.20;0.20;;;;;;;18.94;44.76;101910.25;5076973;28;20093;-43
2023/04/30 08:39:55;;;;;;;0.30;0.30;;;;;;;18.94;44.78;101919.38;5094684;28;20052;-46
2023/04/30 08:42:25;;;;;;;0.20;0.20;;;;;;;18.95;45.23;101911.94;5095269;28;20475;-44
2023/04/30 08:44:51;;;;;;;0.20;0.20;;;;;;;18.94;44.98;101907.50;5108354;27;20056;-45
2023/04/30 08:47:17;;;;;;;0.20;0.20;;;;;;;18.94;44.78;101916.63;5135985;27;20421;-45
2023/04/30 08:49:43;;;;;;;0.25;0.25;;;;;;;18.94;44.81;101905.56;5108172;28;20100;-47
2023/04/30 08:52:09;;;;;;;0.30;0.30;;;;;;;18.95;44.83;101903.66;5095269;28;20078;-43
2023/04/30 08:54:35;;;;;;;0.30;0.30;;;;;;;18.93;45.20;101901.16;5097883;28;20450;-45
2023/04/30 08:57:01;;;;;;;0.30;0.30;;;;;;;18.94;44.89;101904.75;5115089;28;20074;-45
2023/04/30 08:59:27;;;;;;;0.30;0.30;;;;;;;18.94;45.15;101899.22;5114693;28;20054;-44
2023/04/30 09:01:52;;;;;;;0.30;0.30;;;;;;;18.93;45.01;101898.38;5114888;28;20043;-46
2023/04/30 09:04:19;;;;;;;0.25;0.25;;;;;;;18.93;45.27;101898.38;5115081;28;20747;-43
2023/04/30 09:06:45;;;;;;;0.20;0.20;;;;;;;18.92;44.87;101896.72;5115357;27;20292;-46
2023/04/30 09:09:12;;;;;;;0.20;0.20;;;;;;;18.94;45.27;101893.69;5115306;27;20473;-48
2023/04/30 09:11:38;;;;;;;0.30;0.30;;;;;;;18.94;44.90;101899.22;5096840;28;20554;-46
2023/04/30 09:14:04;;;;;;;0.30;0.30;;;;;;;18.93;45.09;101890.09;5115098;28;20051;-45
2023/04/30 09:16:47;;;;;;;0.20;0.20;;;;;;;18.93;45.01;101878.25;5096582;28;20074;-44
2023/04/30 09:19:29;;;;;;;0.30;0.30;;;;;;;18.92;44.82;101885.69;5095843;28;20070;-44
2023/04/30 09:21:56;;;;;;;0.20;0.20;;;;;;;18.93;44.95;101886.53;5079932;28;20043;-44
2023/04/30 09:24:22;;;;;;;0.20;0.20;;;;;;;18.93;44.95;101890.09;5114457;27;20070;-45
2023/04/30 09:26:48;;;;;;;0.30;0.30;;;;;;;18.93;45.17;101889.28;5121063;27;20171;-46
2023/04/30 09:29:14;;;;;;;0.30;0.30;;;;;;;18.93;45.13;101884.59;5110283;28;20484;-46
2023/04/30 09:31:43;;;;;;;0.30;0.30;;;;;;;18.93;44.88;101890.09;5114141;27;20039;-44
2023/04/30 09:34:09;;;;;;;0.30;0.30;;;;;;;18.93;45.11;101879.06;5115087;28;20132;-44
2023/04/30 09:36:35;;;;;;;0.30;0.30;;;;;;;18.93;44.94;101876.31;5096203;28;20067;-45
2023/04/30 09:39:06;;;;;;;0.30;0.30;;;;;;;18.93;45.14;101876.31;5096201;28;20047;-44
2023/04/30 09:41:35;;;;;;;0.20;0.20;;;;;;;18.93;45.12;101868.03;5114276;28;20046;-46
2023/04/30 09:44:00;;;;;;;0.20;0.20;;;;;;;18.94;45.07;101869.69;5115192;28;20043;-46
2023/04/30 09:46:31;;;;;;;0.30;0.30;;;;;;;18.94;44.86;101858.66;5115964;27;20055;-43
2023/04/30 09:48:58;;;;;;;0.20;0.20;;;;;;;18.93;45.14;101859.75;5099731;28;20055;-45
2023/04/30 09:51:24;;;;;;;0.30;0.30;;;;;;;18.94;45.11;101860.56;5117832;28;20495;-43
2023/04/30 09:53:50;;;;;;;0.30;0.30;;;;;;;18.93;44.88;101861.69;5118502;28;20419;-43
2023/04/30 09:56:20;;;;;;;0.28;0.28;;;;;;;18.92;44.85;101860.84;5118169;28;20039;-43
2023/04/30 09:58:49;;;;;;;0.20;0.20;;;;;;;18.92;45.08;101858.09;5099990;28;20047;-45
2023/04/30 10:01:16;;;;;;;0.28;0.28;;;;;;;18.94;45.19;101855.06;5118042;28;20051;-46
2023/04/30 10:03:42;;;;;;;0.20;0.20;;;;;;;18.93;45.03;101854.22;5088164;28;20043;-45
2023/04/30 10:06:12;;;;;;;0.20;0.20;;;;;;;18.94;45.08;101860.56;5079228;28;20082;-45
2023/04/30 10:08:42;;;;;;;0.20;0.20;;;;;;;18.93;45.12;101859.75;5079225;28;20051;-44
2023/04/30 10:11:11;;;;;;;0.30;0.30;;;;;;;18.93;44.93;101859.75;5094915;28;20148;-43
2023/04/30 10:13:51;;;;;;;0.20;0.20;;;;;;;18.93;44.85;101851.47;5083201;28;20189;-44
2023/04/30 10:16:33;;;;;;;0.20;0.20;;;;;;;18.93;45.20;101851.47;5099551;28;20487;-45
2023/04/30 10:19:05;;;;;;;0.20;0.20;;;;;;;18.93;45.26;101845.13;5117150;28;20842;-42
2023/04/30 10:21:31;;;;;;;0.30;0.30;;;;;;;18.93;45.24;101847.88;5117158;28;20039;-47
2023/04/30 10:23:57;;;;;;;0.30;0.30;;;;;;;18.92;45.22;101844.28;5117381;28;20096;-43
2023/04/30 10:26:23;;;;;;;0.30;0.30;;;;;;;18.93;45.28;101834.06;5117401;27;20051;-47
2023/04/30 10:28:49;;;;;;;0.30;0.30;;;;;;;18.93;44.97;101836.84;5116946;28;20043;-43
2023/04/30 10:31:16;;;;;;;0.38;0.38;;;;;;;18.92;45.01;101836.00;5105446;28;20143;-46
2023/04/30 10:34:04;;;;;;;0.30;0.30;;;;;;;18.92;45.03;101830.47;5117601;27;20317;-46
2023/04/30 10:36:47;;;;;;;;;;;;;;;18.92;45.00;101830.47;5117030;28;20483;-43
2023/04/30 10:39:14;;;;;;;0.20;0.20;;;;;;;18.90;44.87;101829.88;5115647;28;19966;-44
2023/04/30 10:41:43;;;;;;;0.20;0.20;;;;;;;18.92;45.06;101830.47;5116232;28;20074;-44
2023/04/30 10:44:09;;;;;;;0.20;0.20;;;;;;;18.93;45.09;101820.28;5098630;28;20122;-47
2023/04/30 10:46:35;;;;;;;0.20;0.20;;;;;;;18.93;45.12;101821.09;5117742;28;20057;-45
2023/04/30 10:49:01;;;;;;;0.30;0.30;;;;;;;18.93;44.96;101818.34;5116552;28;20043;-45
2023/04/30 10:51:47;;;;;;;0.20;0.20;;;;;;;18.93;44.96;101815.59;5098525;28;20489;-45
2023/04/30 10:54:17;;;;;;;0.30;0.30;;;;;;;18.94;45.11;101810.88;5084777;28;20278;-45
2023/04/30 10:56:44;;;;;;;0.20;0.20;;;;;;;18.92;44.80;101793.78;5117103;27;20043;-45
2023/04/30 10:59:10;;;;;;;0.20;0.20;;;;;;;18.92;45.22;101805.63;5098623;28;20082;-45
2023/04/30 11:01:57;;;;;;;0.30;0.30;;;;;;;18.91;45.05;101798.47;5116895;28;20042;-48
2023/04/30 11:04:23;;;;;;;0.30;0.30;;;;;;;18.91;44.98;101794.84;5084287;28;20126;-45
2023/04/30 11:06:54;;;;;;;0.30;0.30;;;;;;;18.92;45.00;101778.03;5098933;28;20098;-45
2023/04/30 11:09:41;;;;;;;0.20;0.20;;;;;;;18.93;45.00;101779.69;5114113;28;20051;-46
2023/04/30 11:12:18;;;;;;;0.20;0.20;;;;;;;18.93;44.99;101787.16;5064438;28;20055;-45
2023/04/30 11:14:44;;;;;;;0.20;0.20;;;;;;;18.92;44.95;101778.03;5078023;28;20475;-43
2023/04/30 11:17:22;;;;;;;0.30;0.30;;;;;;;18.93;44.95;101776.09;5078774;28;20535;-46
2023/04/30 11:19:50;;;;;;;0.20;0.20;;;;;;;18.91;45.21;101773.63;5096259;28;20468;-45
2023/04/30 11:22:18;;;;;;;0.30;0.30;;;;;;;18.93;44.82;101774.19;5061466;28;20225;-45
2023/04/30 11:27:35;;;;;;;0.30;0.30;;;;;;;18.91;45.08;101773.63;5175098;27;20123;-44
2023/04/30 11:30:01;;;;;;;0.30;0.30;;;;;;;18.90;45.13;101766.41;5133875;27;20070;-45